Time;durP1;ratioP1;P1;durP2;ratioP2;P2;SDS_P1;SDS_P2;PMS_P1;PMS_P2;Temp;Humidity;BMP_temperature;BMP_pressure;BME280_temperature;BME280_humidity;BME280_pressure;Samples;Min_cycle;Max_cycle;Signal;HPM_P1;HPM_P2
2021/04/18 14:57:33;;;;;;;10.30;3.30;;;;;;;;;;5099485;27;20365;-54
2021/04/18 14:59:59;;;;;;;17.70;3.60;;;;;;;;;;5072715;28;20063;-55
2021/04/18 15:02:26;;;;;;;18.55;3.60;;;;;;;;;;5077813;28;20047;-55
2021/04/18 15:04:52;;;;;;;13.90;4.93;;;;;;;;;;5078357;28;20021;-57
2021/04/18 15:07:18;;;;;;;11.88;5.20;;;;;;;;;;5084611;28;20024;-53
2021/04/18 15:09:44;;;;;;;8.63;4.25;;;;;;;;;;5068174;28;20458;-55
2021/04/18 15:12:10;;;;;;;11.30;4.50;;;;;;;;;;5087939;28;20025;-55
2021/04/18 15:14:36;;;;;;;13.30;3.90;;;;;;;;;;5070548;28;20033;-53
2021/04/18 15:17:02;;;;;;;14.02;3.63;;;;;;;;;;5082013;28;20033;-48
2021/04/18 15:19:28;;;;;;;11.38;3.35;;;;;;;;;;5083849;28;20036;-56
2021/04/18 15:21:54;;;;;;;10.73;3.70;;;;;;;;;;5070360;28;20029;-55
2021/04/18 15:24:20;;;;;;;7.68;3.60;;;;;;;;;;5081799;28;20512;-61
2021/04/18 15:28:34;;;;;;;12.05;4.38;;;;;;;;;;5055906;28;20400;-62
2021/04/18 15:31:00;;;;;;;21.65;5.07;;;;;;;;;;5046664;28;20039;-60
2021/04/18 15:33:31;;;;;;;14.73;3.90;;;;;;;;;;5026050;28;20941;-60
2021/04/18 15:36:00;;;;;;;15.00;3.88;;;;;;;;;;5034017;28;20108;-59
2021/04/18 15:38:27;;;;;;;8.68;3.40;;;;;;;;;;5057136;28;20037;-62
2021/04/18 15:40:53;;;;;;;6.35;3.83;;;;;;;;;;5044742;28;20029;-56
2021/04/18 15:43:19;;;;;;;11.57;4.15;;;;;;;;;;5042705;28;20037;-55
2021/04/18 15:45:45;;;;;;;9.85;3.50;;;;;;;;;;5044688;28;20021;-45
2021/04/18 15:48:13;;;;;;;9.38;3.80;;;;;;;;;;5044290;28;20131;-48
2021/04/18 15:50:39;;;;;;;9.25;3.90;;;;;;;;;;5034490;28;20055;-57
2021/04/18 15:53:07;;;;;;;10.15;4.32;;;;;;;;;;5031455;28;20037;-62
2021/04/18 15:55:33;;;;;;;12.98;3.67;;;;;;;;;;5039520;28;20017;-60
2021/04/18 15:58:00;;;;;;;14.77;4.05;;;;;;;;;;5038945;28;20029;-60
2021/04/18 16:28:10;;;;;;;35.58;20.27;;;;;;;;;;6005942;22;15150093;-90
2021/04/18 16:30:39;;;;;;;22.13;12.75;;;;;;;;;;6371734;22;20209;-89
2021/04/18 16:33:24;;;;;;;;;;;;;;;;;;;;;
2021/04/18 16:36:01;;;;;;;18.83;12.82;;;;;;;;;;6376577;22;20093;-89
2021/04/18 16:38:38;;;;;;;;;;;;;;;;;;;;;
2021/04/18 16:41:41;;;;;;;13.70;9.43;;;;;;;;;;6379698;22;20367;-88
2021/04/18 16:44:41;;;;;;;;;;;;;;;;;;;;;
2021/04/18 16:49:58;;;;;;;16.55;10.52;;;;;;;;;;6378023;22;20084;-88
2021/04/18 16:52:27;;;;;;;11.63;6.35;;;;;;;;;;6378410;22;20013;-89
2021/04/18 16:55:04;;;;;;;31.63;17.88;;;;;;;;;;6376242;22;20555;-88
2021/04/18 16:58:05;;;;;;;22.35;14.15;;;;;;;;;;6352340;22;20622;-88
2021/04/18 17:01:02;;;;;;;;;;;;;;;;;;;;;
2021/04/18 17:09:34;;;;;;;11.77;7.25;;;;;;;;;;6328368;22;20002;-88
2021/04/18 17:12:16;;;;;;;28.90;15.90;;;;;;;;;;6366769;22;20002;-89
2021/04/18 17:15:12;;;;;;;;;;;;;;;;;;;;;
2021/04/18 17:18:00;;;;;;;15.38;9.52;;;;;;;;;;6377464;22;20073;-89
2021/04/18 17:20:26;;;;;;;12.10;8.15;;;;;;;;;;6353353;22;20010;-88
2021/04/18 17:23:08;;;;;;;;;;;;;;;;;;;;;
2021/04/18 17:25:40;;;;;;;17.48;9.80;;;;;;;;;;6376672;22;20081;-88
2021/04/18 17:28:11;;;;;;;30.33;15.20;;;;;;;;;;6373067;22;20010;-88
2021/04/18 17:30:48;;;;;;;20.83;11.00;;;;;;;;;;6372873;22;20014;-89
2021/04/18 17:33:23;;;;;;;19.10;11.10;;;;;;;;;;6373413;22;20027;-89
2021/04/18 17:36:00;;;;;;;16.88;9.75;;;;;;;;;;6373380;22;20005;-89
2021/04/18 17:38:31;;;;;;;14.48;9.52;;;;;;;;;;6373053;22;20013;-87
2021/04/18 17:41:08;;;;;;;8.88;4.93;;;;;;;;;;6347552;22;20333;-89
2021/04/18 17:46:43;;;;;;;15.52;9.05;;;;;;;;;;6401715;22;20085;-89
2021/04/18 17:49:19;;;;;;;20.50;11.70;;;;;;;;;;6349337;22;20002;-89
2021/04/18 17:51:57;;;;;;;;;;;;;;;;;;;;;
2021/04/18 17:54:43;;;;;;;34.28;19.60;;;;;;;;;;6375285;22;20077;-89
2021/04/18 17:57:40;;;;;;;15.85;9.88;;;;;;;;;;6372276;22;20063;-89
2021/04/18 18:00:23;;;;;;;;;;;;;;;;;;;;;
2021/04/18 18:02:52;;;;;;;16.02;10.43;;;;;;;;;;6400756;22;20123;-89
2021/04/18 18:08:34;;;;;;;15.00;9.32;;;;;;;;;;6352782;22;20021;-89
2021/04/18 18:17:20;;;;;;;18.40;10.43;;;;;;;;;;6368692;22;20009;-90
2021/04/18 18:20:17;;;;;;;14.50;9.65;;;;;;;;;;6352183;22;19998;-89
2021/04/18 20:08:01;;;;;;;14.93;9.25;;;;;;;;;;6383948;22;20045;-88
2021/04/18 20:13:43;;;;;;;14.02;9.38;;;;;;;;;;6354005;22;19998;-89
2021/04/18 20:16:37;;;;;;;14.50;9.18;;;;;;;;;;6376201;22;20081;-91
2021/04/18 20:25:20;;;;;;;13.02;9.20;;;;;;;;;;6304479;22;20067;-90
2021/04/18 20:28:23;;;;;;;13.02;8.95;;;;;;;;;;6279273;22;20310;-89
2021/04/18 20:33:51;;;;;;;13.80;8.70;;;;;;;;;;6284364;22;20358;-90
2021/04/18 20:36:38;;;;;;;15.00;9.60;;;;;;;;;;6280613;22;20038;-89
2021/04/18 20:39:35;;;;;;;;;;;;;;;;;;;;;
2021/04/18 20:45:27;;;;;;;;;;;;;;;;;;;;;
2021/04/18 20:48:08;;;;;;;13.98;9.52;;;;;;;;;;6390339;22;20068;-90
2021/04/18 20:51:15;;;;;;;15.57;9.73;;;;;;;;;;6376352;22;20397;-91
2021/04/18 20:54:03;;;;;;;16.80;9.82;;;;;;;;;;6398270;22;20059;-90
2021/04/18 21:02:50;;;;;;;;;;;;;;;;;;;;;
2021/04/18 21:08:45;;;;;;;16.27;10.38;;;;;;;;;;6371373;22;20014;-92
2021/04/18 21:11:24;;;;;;;;;;;;;;;;;;;;;
2021/04/18 21:14:02;;;;;;;16.25;11.40;;;;;;;;;;6404546;22;20050;-90
2021/04/18 21:16:41;;;;;;;19.52;12.65;;;;;;;;;;6351349;22;20069;-91
2021/04/18 21:19:17;;;;;;;;;;;;;;;;;;;;;
2021/04/18 21:22:23;;;;;;;;;;;;;;;;;;;;;
2021/04/18 21:25:25;;;;;;;;;;;;;;;;;;;;;
2021/04/18 21:31:12;;;;;;;17.65;10.43;;;;;;;;;;6398022;22;20004;-92
2021/04/18 21:34:04;;;;;;;16.10;11.10;;;;;;;;;;6376330;22;19993;-91
2021/04/18 21:36:32;;;;;;;15.55;10.52;;;;;;;;;;6359542;22;20485;-90
2021/04/18 21:39:10;;;;;;;15.57;11.02;;;;;;;;;;6375293;22;20006;-91
2021/04/18 21:42:00;;;;;;;18.70;11.38;;;;;;;;;;6373603;22;20127;-90
2021/04/18 21:44:56;;;;;;;;;;;;;;;;;;;;;
2021/04/18 21:47:34;;;;;;;16.58;10.93;;;;;;;;;;6403743;22;20105;-91
2021/04/18 21:53:43;;;;;;;15.88;10.80;;;;;;;;;;6397923;22;20104;-91
2021/04/18 21:56:19;;;;;;;17.08;10.50;;;;;;;;;;6401700;22;20009;-90
2021/04/18 22:04:55;;;;;;;20.60;12.02;;;;;;;;;;6379714;22;20290;-91
2021/04/18 22:07:37;;;;;;;;;;;;;;;;;;;;;
2021/04/18 22:10:14;;;;;;;;;;;;;;;;;;;;;
2021/04/18 22:13:22;;;;;;;;;;;;;;;;;;;;;
2021/04/18 22:25:14;;;;;;;18.50;11.23;;;;;;;;;;6242217;22;20035;-91
2021/04/18 22:36:36;;;;;;;18.38;11.38;;;;;;;;;;6379320;22;20006;-91
2021/04/18 22:39:32;;;;;;;;;;;;;;;;;;;;;
2021/04/18 22:42:34;;;;;;;17.92;10.52;;;;;;;;;;6402225;22;20073;-90
2021/04/18 22:45:26;;;;;;;16.33;10.90;;;;;;;;;;6366659;22;20457;-91
2021/04/18 22:48:10;;;;;;;16.90;11.43;;;;;;;;;;6373979;22;20053;-91
2021/04/18 22:51:06;;;;;;;21.00;11.93;;;;;;;;;;6374264;22;20047;-90
2021/04/18 22:59:58;;;;;;;;;;;;;;;;;;;;;
2021/04/18 23:02:44;;;;;;;;;;;;;;;;;;;;;
2021/04/18 23:08:52;;;;;;;;;;;;;;;;;;;;;
2021/04/18 23:11:33;;;;;;;17.88;11.18;;;;;;;;;;6401303;22;20084;-91
2021/04/18 23:14:30;;;;;;;;;;;;;;;;;;;;;
2021/04/18 23:17:25;;;;;;;16.05;10.95;;;;;;;;;;6302768;22;20088;-91
2021/04/18 23:20:35;;;;;;;15.02;10.45;;;;;;;;;;6373188;22;20408;-91
2021/04/18 23:26:35;;;;;;;17.50;10.63;;;;;;;;;;6383881;22;20002;-90
2021/04/18 23:29:31;;;;;;;;;;;;;;;;;;;;;
2021/04/18 23:32:33;;;;;;;15.75;10.40;;;;;;;;;;6409430;22;20029;-92
2021/04/18 23:35:11;;;;;;;15.00;10.30;;;;;;;;;;6373347;22;20002;-91
2021/04/18 23:38:13;;;;;;;;;;;;;;;;;;;;;
2021/04/18 23:41:19;;;;;;;;;;;;;;;;;;;;;
2021/04/18 23:43:52;;;;;;;16.60;10.93;;;;;;;;;;6353749;22;20077;-90
2021/04/18 23:46:34;;;;;;;;;;;;;;;;;;;;;
2021/04/18 23:52:32;;;;;;;19.52;11.85;;;;;;;;;;6394471;22;20015;-92
2021/04/18 23:55:22;;;;;;;17.98;11.10;;;;;;;;;;6363885;22;19998;-92
2021/04/18 23:58:11;;;;;;;;;;;;;;;;;;;;;
